createdAt,value
2024-04-10T00:00:44.996Z,1.18
2024-04-10T00:01:45.009Z,1.13
2024-04-10T00:02:44.970Z,1.16
2024-04-10T00:03:45.042Z,1.16
2024-04-10T00:04:45.220Z,1.17
2024-04-10T00:05:45.105Z,1.15
2024-04-10T00:06:45.073Z,1.14
2024-04-10T00:07:45.149Z,1.15
2024-04-10T00:08:45.135Z,1.16
2024-04-10T00:09:45.170Z,1.13
2024-04-10T00:10:45.304Z,1.17
2024-04-10T00:11:45.379Z,1.15
2024-04-10T00:12:45.242Z,1.14
2024-04-10T00:13:45.328Z,1.13
2024-04-10T00:14:45.291Z,1.14
2024-04-10T00:15:45.314Z,1.17
2024-04-10T00:16:45.392Z,1.14
2024-04-10T00:17:45.565Z,1.14
2024-04-10T00:18:45.513Z,1.15
2024-04-10T00:19:45.433Z,1.15
2024-04-10T00:20:45.443Z,1.16
2024-04-10T00:21:45.460Z,1.14
2024-04-10T00:22:46.337Z,1.14
2024-04-10T00:23:45.514Z,1.12
2024-04-10T00:24:45.542Z,1.11
2024-04-10T00:25:45.579Z,1.13
2024-04-10T00:26:45.598Z,1.13
2024-04-10T00:27:45.631Z,1.13
2024-04-10T00:28:45.709Z,1.13
2024-04-10T00:29:45.691Z,1.11
2024-04-10T00:30:45.718Z,1.13
2024-04-10T00:31:45.749Z,1.12
2024-04-10T00:32:45.867Z,1.12
2024-04-10T00:33:45.861Z,1.12
2024-04-10T00:34:45.871Z,1.13
2024-04-10T00:35:45.852Z,1.12
2024-04-10T00:36:45.895Z,1.12
2024-04-10T00:37:45.937Z,1.12
2024-04-10T00:38:45.959Z,1.10
2024-04-10T00:39:45.983Z,1.12
2024-04-10T00:40:46.045Z,1.12
2024-04-10T00:41:46.041Z,1.11
2024-04-10T00:42:46.071Z,1.12
2024-04-10T00:43:46.178Z,1.12
2024-04-10T00:44:46.154Z,1.13
2024-04-10T00:45:46.188Z,1.13
2024-04-10T00:46:46.236Z,1.11
2024-04-10T00:47:46.293Z,1.11
2024-04-10T00:48:46.550Z,1.12
2024-04-10T00:49:46.393Z,1.10
2024-04-10T00:50:46.366Z,1.12
2024-04-10T00:51:46.366Z,1.12
2024-04-10T00:52:46.469Z,1.10
2024-04-10T00:53:46.435Z,1.12
2024-04-10T00:54:46.467Z,1.11
2024-04-10T00:55:46.580Z,1.11
2024-04-10T00:56:46.569Z,1.09
2024-04-10T00:57:46.546Z,1.10
2024-04-10T00:58:46.637Z,1.10
2024-04-10T00:59:46.606Z,1.10
2024-04-10T01:00:46.716Z,1.11
2024-04-10T01:01:46.848Z,1.10
2024-04-10T01:02:46.705Z,1.10
2024-04-10T01:03:47.030Z,1.10
2024-04-10T01:04:46.907Z,1.10
2024-04-10T01:05:46.833Z,1.11
2024-04-10T01:06:46.842Z,1.09
2024-04-10T01:07:46.897Z,1.10
2024-04-10T01:08:46.939Z,1.10
2024-04-10T01:09:46.956Z,1.10
2024-04-10T01:10:47.040Z,1.09
2024-04-10T01:11:47.139Z,1.09
2024-04-10T01:12:47.065Z,1.10
2024-04-10T01:13:47.172Z,1.09
2024-04-10T01:14:47.124Z,1.09
2024-04-10T01:15:47.179Z,1.09
2024-04-10T01:16:47.288Z,1.09
2024-04-10T01:17:47.318Z,1.07
2024-04-10T01:18:47.312Z,1.10
2024-04-10T01:19:47.335Z,1.08
2024-04-10T01:20:47.351Z,1.08
2024-04-10T01:21:47.385Z,1.08
2024-04-10T01:22:47.428Z,1.09
2024-04-10T01:23:47.468Z,1.08
2024-04-10T01:24:47.506Z,1.08
2024-04-10T01:25:47.589Z,1.07
2024-04-10T01:26:47.572Z,1.06
2024-04-10T01:27:47.606Z,1.06
2024-04-10T01:28:47.642Z,1.06
2024-04-10T01:29:47.687Z,1.06
2024-04-10T01:30:47.735Z,1.07
2024-04-10T01:31:47.792Z,1.07
2024-04-10T01:32:47.994Z,1.07
2024-04-10T01:33:47.954Z,1.07
2024-04-10T01:34:47.946Z,1.07
2024-04-10T01:35:47.929Z,1.07
2024-04-10T01:36:47.967Z,1.07
2024-04-10T01:37:48.030Z,1.08
2024-04-10T01:38:48.024Z,1.08
2024-04-10T01:39:48.054Z,1.07
2024-04-10T01:40:48.182Z,1.06
2024-04-10T01:41:48.127Z,1.06
2024-04-10T01:42:48.162Z,1.07
2024-04-10T01:43:48.242Z,1.05
2024-04-10T01:44:48.247Z,1.05
2024-04-10T01:45:48.299Z,1.05
2024-04-10T01:46:48.411Z,1.05
2024-04-10T01:47:48.510Z,1.06
2024-04-10T01:48:48.521Z,1.05
2024-04-10T01:49:48.525Z,1.05
2024-04-10T01:50:48.494Z,1.04
2024-04-10T01:51:48.528Z,1.05
2024-04-10T01:52:48.652Z,1.04
2024-04-10T01:53:48.613Z,1.05
2024-04-10T01:54:48.646Z,1.06
2024-04-10T01:55:48.714Z,1.05
2024-04-10T01:56:48.730Z,1.05
2024-04-10T01:57:48.755Z,1.06
2024-04-10T01:58:48.832Z,1.05
2024-04-10T01:59:48.847Z,1.04
2024-04-10T02:00:48.943Z,1.05
2024-04-10T02:01:48.973Z,1.04
2024-04-10T02:02:49.056Z,1.05
2024-04-10T02:03:49.169Z,1.02
2024-04-10T02:04:49.120Z,1.03
2024-04-10T02:05:49.085Z,1.05
2024-04-10T02:06:49.133Z,1.04
2024-04-10T02:07:49.244Z,1.04
2024-04-10T02:08:49.222Z,1.04
2024-04-10T02:09:49.268Z,1.03
2024-04-10T02:10:49.475Z,1.04
2024-04-10T02:11:49.494Z,1.03
2024-04-10T02:12:49.404Z,1.04
2024-04-10T02:13:49.566Z,1.03
2024-04-10T02:14:49.504Z,1.03
2024-04-10T02:15:49.544Z,1.01
2024-04-10T02:16:49.810Z,1.03
2024-04-10T02:17:49.735Z,1.01
2024-04-10T02:18:49.666Z,1.04
2024-04-10T02:19:49.787Z,1.04
2024-04-10T02:20:49.756Z,1.03
2024-04-10T02:21:49.789Z,1.03
2024-04-10T02:22:49.867Z,1.03
2024-04-10T02:23:49.890Z,1.01
2024-04-10T02:24:49.942Z,1.02
2024-04-10T02:25:50.059Z,1.04
2024-04-10T02:26:50.041Z,1.03
2024-04-10T02:27:50.092Z,1.03
2024-04-10T02:28:50.171Z,1.02
2024-04-10T02:29:50.188Z,1.02
2024-04-10T02:30:50.258Z,1.02
2024-04-10T02:31:50.335Z,1.02
2024-04-10T02:32:50.529Z,1.01
2024-04-10T02:33:50.454Z,1.02
2024-04-10T02:34:50.472Z,1.02
2024-04-10T02:35:50.480Z,1.01
2024-04-10T02:36:50.530Z,1.03
2024-04-10T02:37:50.600Z,1.01
2024-04-10T02:38:50.643Z,1.02
2024-04-10T02:39:50.681Z,1.02
2024-04-10T02:40:50.757Z,1.03
2024-04-10T02:41:50.778Z,1.00
2024-04-10T02:42:50.818Z,0.99
2024-04-10T02:43:50.903Z,0.99
2024-04-10T02:44:50.919Z,1.00
2024-04-10T02:45:50.969Z,1.02
2024-04-10T02:46:51.045Z,1.02
2024-04-10T02:47:51.174Z,1.02
2024-04-10T02:48:51.099Z,1.01
2024-04-10T02:49:51.214Z,1.01
2024-04-10T02:50:51.210Z,0.98
2024-04-10T02:51:51.265Z,1.00
2024-04-10T02:52:51.338Z,0.99
2024-04-10T02:53:51.374Z,0.99
2024-04-10T02:54:51.433Z,1.00
2024-04-10T02:55:51.502Z,1.00
2024-04-10T02:56:51.490Z,0.98
2024-04-10T02:57:51.533Z,1.01
2024-04-10T02:58:51.615Z,0.99
2024-04-10T02:59:51.620Z,1.00
2024-04-10T03:00:51.731Z,0.99
2024-04-10T03:01:51.771Z,1.02
2024-04-10T03:02:52.001Z,0.98
2024-04-10T03:03:51.907Z,1.00
2024-04-10T03:04:51.917Z,0.98
2024-04-10T03:05:51.923Z,0.99
2024-04-10T03:06:51.987Z,1.00
2024-04-10T03:07:52.087Z,0.99
2024-04-10T03:08:52.077Z,0.99
2024-04-10T03:09:52.108Z,1.00
2024-04-10T03:10:52.199Z,1.00
2024-04-10T03:11:52.418Z,0.98
2024-04-10T03:12:52.287Z,0.99
2024-04-10T03:13:52.381Z,0.99
2024-04-10T03:14:52.332Z,0.97
2024-04-10T03:15:52.373Z,0.99
2024-04-10T03:16:52.566Z,0.97
2024-04-10T03:17:52.656Z,0.98
2024-04-10T03:18:52.559Z,0.99
2024-04-10T03:19:52.580Z,0.98
2024-04-10T03:20:52.617Z,0.99
2024-04-10T03:21:52.662Z,0.99
2024-04-10T03:22:54.207Z,0.99
2024-04-10T03:23:52.697Z,0.98
2024-04-10T03:24:52.698Z,0.98
2024-04-10T03:25:52.729Z,0.98
2024-04-10T03:26:52.714Z,0.98
2024-04-10T03:27:52.733Z,0.97
2024-04-10T03:28:52.760Z,0.98
2024-04-10T03:29:52.727Z,0.98
2024-04-10T03:30:52.731Z,0.98
2024-04-10T03:31:52.746Z,0.97
2024-04-10T03:32:52.752Z,0.97
2024-04-10T03:33:52.764Z,0.97
2024-04-10T03:34:52.760Z,0.95
2024-04-10T03:35:52.741Z,0.97
2024-04-10T03:36:52.737Z,0.98
2024-04-10T03:37:52.778Z,0.96
2024-04-10T03:38:52.919Z,0.96
2024-04-10T03:39:52.745Z,0.96
2024-04-10T03:40:52.775Z,0.97
2024-04-10T03:41:52.747Z,0.96
2024-04-10T03:42:52.759Z,0.97
2024-04-10T03:43:52.798Z,0.96
2024-04-10T03:44:52.787Z,0.98
2024-04-10T03:45:52.879Z,0.95
2024-04-10T03:46:52.979Z,0.95
2024-04-10T03:47:52.950Z,0.96
2024-04-10T03:48:53.043Z,0.96
2024-04-10T03:49:52.842Z,0.95
2024-04-10T03:50:52.827Z,0.95
2024-04-10T03:51:52.818Z,0.93
2024-04-10T03:52:52.853Z,0.95
2024-04-10T03:53:52.868Z,0.94
2024-04-10T03:54:52.846Z,0.94
2024-04-10T03:55:52.909Z,0.93
2024-04-10T03:56:52.849Z,0.94
2024-04-10T03:57:52.866Z,0.95
2024-04-10T03:58:52.929Z,0.94
2024-04-10T03:59:52.898Z,0.93
2024-04-10T04:00:53.111Z,0.93
2024-04-10T04:01:52.917Z,0.93
2024-04-10T04:02:53.087Z,0.93
2024-04-10T04:03:52.966Z,0.94
2024-04-10T04:04:52.967Z,0.92
2024-04-10T04:05:52.951Z,0.92
2024-04-10T04:06:52.958Z,0.93
2024-04-10T04:07:52.987Z,0.92
2024-04-10T04:08:52.976Z,0.93
2024-04-10T04:09:52.983Z,0.92
2024-04-10T04:10:53.102Z,0.90
2024-04-10T04:11:53.111Z,0.92
2024-04-10T04:12:53.022Z,0.92
2024-04-10T04:13:53.095Z,0.90
2024-04-10T04:14:53.032Z,0.90
2024-04-10T04:15:53.114Z,0.92
2024-04-10T04:16:53.075Z,0.92
2024-04-10T04:17:53.139Z,0.89
2024-04-10T04:18:53.088Z,0.92
2024-04-10T04:19:53.126Z,0.91
2024-04-10T04:20:53.110Z,0.90
2024-04-10T04:21:53.115Z,0.90
2024-04-10T04:22:53.179Z,0.89
2024-04-10T04:23:53.148Z,0.89
2024-04-10T04:24:53.142Z,0.90
2024-04-10T04:25:53.239Z,0.87
2024-04-10T04:26:53.172Z,0.89
2024-04-10T04:27:53.167Z,0.91
2024-04-10T04:28:53.228Z,0.88
2024-04-10T04:29:53.188Z,0.88
2024-04-10T04:30:53.206Z,0.90
2024-04-10T04:31:53.253Z,0.90
2024-04-10T04:32:53.387Z,0.90
2024-04-10T04:33:53.284Z,0.87
2024-04-10T04:34:53.262Z,0.90
2024-04-10T04:35:53.239Z,0.92
2024-04-10T04:36:53.248Z,0.89
2024-04-10T04:37:53.276Z,0.89
2024-04-10T04:38:53.267Z,0.89
2024-04-10T04:39:53.280Z,0.87
2024-04-10T04:40:53.305Z,0.89
2024-04-10T04:41:53.291Z,0.89
2024-04-10T04:42:53.317Z,0.89
2024-04-10T04:43:53.429Z,0.90
2024-04-10T04:44:53.441Z,0.88
2024-04-10T04:45:53.427Z,0.89
2024-04-10T04:46:53.560Z,0.88
2024-04-10T04:47:53.561Z,0.88
2024-04-10T04:48:53.532Z,0.86
2024-04-10T04:49:53.562Z,0.88
2024-04-10T04:50:55.853Z,0.88
2024-04-10T04:51:53.584Z,0.87
2024-04-10T04:52:53.631Z,0.88
2024-04-10T04:53:53.604Z,0.88
2024-04-10T04:55:00.929Z,0.50
2024-04-10T04:56:00.946Z,0.50
2024-04-10T04:57:00.895Z,0.50
2024-04-10T04:58:00.874Z,0.50
2024-04-10T04:59:00.887Z,0.50
2024-04-10T05:00:00.848Z,0.51
2024-04-10T05:01:00.865Z,0.51
2024-04-10T05:02:00.912Z,0.50
2024-04-10T05:03:00.961Z,0.51
2024-04-10T05:04:00.923Z,0.51
2024-04-10T05:05:00.859Z,0.51
2024-04-10T05:06:00.803Z,0.51
2024-04-10T05:07:00.782Z,0.51
2024-04-10T05:08:00.753Z,0.51
2024-04-10T05:09:00.731Z,0.52
2024-04-10T05:10:00.724Z,0.50
2024-04-10T05:11:00.853Z,0.50
2024-04-10T05:12:03.763Z,0.52
2024-04-10T05:13:00.690Z,0.52
2024-04-10T05:14:00.646Z,0.52
2024-04-10T05:15:00.615Z,0.52
2024-04-10T05:16:00.631Z,0.52
2024-04-10T05:17:00.618Z,0.50
2024-04-10T05:18:00.637Z,0.51
2024-04-10T05:19:00.547Z,0.51
2024-04-10T05:20:00.582Z,0.51
2024-04-10T05:21:00.498Z,0.51
2024-04-10T05:22:00.488Z,0.52
2024-04-10T05:23:00.480Z,0.50
2024-04-10T05:24:00.438Z,0.52
2024-04-10T05:25:00.427Z,0.51
2024-04-10T05:26:00.426Z,0.50
2024-04-10T05:27:00.399Z,0.50
2024-04-10T05:28:00.415Z,0.51
2024-04-10T05:29:00.439Z,0.50
2024-04-10T05:30:01.128Z,0.51
2024-04-10T05:31:00.346Z,0.53
2024-04-10T05:32:00.505Z,0.55
2024-04-10T05:33:00.443Z,0.56
2024-04-10T05:34:00.438Z,0.54
2024-04-10T05:35:01.383Z,0.54
2024-04-10T05:36:00.328Z,0.48
2024-04-10T05:37:00.359Z,0.43
2024-04-10T05:38:00.445Z,0.39
2024-04-10T05:39:00.323Z,0.34
2024-04-10T05:40:01.206Z,0.37
2024-04-10T05:41:00.419Z,0.40
2024-04-10T05:42:00.321Z,0.45
2024-04-10T05:43:00.328Z,0.50
2024-04-10T05:44:01.109Z,0.50
2024-04-10T05:45:02.150Z,0.50
2024-04-10T05:46:00.374Z,0.51
2024-04-10T05:47:00.699Z,0.50
2024-04-10T05:48:00.624Z,0.50
2024-04-10T05:49:00.709Z,0.50
2024-04-10T05:50:00.730Z,0.50
2024-04-10T05:51:00.606Z,0.50
2024-04-10T05:52:01.585Z,0.50
2024-04-10T05:53:02.684Z,0.50
2024-04-10T05:54:00.768Z,0.50
2024-04-10T05:55:00.782Z,0.51
2024-04-10T05:56:00.765Z,0.51
2024-04-10T05:57:00.738Z,0.50
2024-04-10T05:58:00.759Z,0.51
2024-04-10T05:59:00.802Z,0.51
2024-04-10T06:00:00.776Z,0.51
2024-04-10T06:01:00.818Z,0.52
2024-04-10T06:02:00.944Z,0.53
2024-04-10T06:03:01.018Z,0.56
2024-04-10T06:04:00.841Z,0.57
2024-04-10T06:05:00.778Z,0.61
2024-04-10T06:06:00.701Z,0.61
2024-04-10T06:07:00.683Z,0.65
2024-04-10T06:08:00.708Z,0.71
2024-04-10T06:09:00.684Z,0.72
2024-04-10T06:10:00.679Z,0.77
2024-04-10T06:11:00.668Z,0.81
2024-04-10T06:12:00.989Z,0.86
2024-04-10T06:13:00.633Z,0.89
2024-04-10T06:14:00.697Z,0.95
2024-04-10T06:15:00.592Z,0.99
2024-04-10T06:16:00.627Z,1.07
2024-04-10T06:17:00.576Z,1.12
2024-04-10T06:18:00.615Z,1.19
2024-04-10T06:19:00.508Z,1.29
2024-04-10T06:20:00.698Z,1.37
2024-04-10T06:21:00.491Z,1.47
2024-04-10T06:22:00.464Z,1.55
2024-04-10T06:23:00.617Z,1.63
2024-04-10T06:24:00.433Z,1.73
2024-04-10T06:25:00.447Z,1.79
2024-04-10T06:26:00.517Z,1.87
2024-04-10T06:27:00.419Z,1.90
2024-04-10T06:28:00.368Z,1.92
2024-04-10T06:29:00.378Z,1.86
2024-04-10T06:30:00.337Z,1.83
2024-04-10T06:31:00.296Z,1.75
2024-04-10T06:32:00.339Z,1.69
2024-04-10T06:33:00.394Z,1.68
2024-04-10T06:34:00.335Z,1.58
2024-04-10T06:35:00.302Z,1.54
2024-04-10T06:36:01.004Z,1.52
2024-04-10T06:37:00.235Z,1.44
2024-04-10T06:38:00.269Z,1.39
2024-04-10T06:39:00.191Z,1.34
2024-04-10T06:40:00.182Z,1.31
2024-04-10T06:41:00.265Z,1.28
2024-04-10T06:42:00.161Z,1.22
2024-04-10T06:43:00.142Z,1.20
2024-04-10T06:44:00.175Z,1.21
2024-04-10T06:45:00.136Z,1.14
2024-04-10T06:46:00.136Z,1.13
2024-04-10T06:47:00.285Z,1.08
2024-04-10T06:48:00.248Z,1.05
2024-04-10T06:49:00.295Z,1.02
2024-04-10T06:50:00.172Z,1.00
2024-04-10T06:51:00.070Z,0.96
2024-04-10T06:52:00.087Z,0.93
2024-04-10T06:53:00.101Z,0.91
2024-04-10T06:54:00.061Z,0.89
2024-04-10T06:55:00.046Z,0.86
2024-04-10T06:56:00.071Z,0.85
2024-04-10T06:57:00.016Z,0.82
2024-04-10T06:58:00.038Z,0.81
2024-04-10T06:59:00.005Z,0.78
2024-04-10T06:59:59.962Z,0.76
2024-04-10T07:01:00.006Z,0.75
2024-04-10T07:01:59.966Z,0.76
2024-04-10T07:02:59.924Z,0.75
2024-04-10T07:03:59.939Z,0.73
2024-04-10T07:05:00.669Z,0.73
2024-04-10T07:05:59.985Z,0.72
2024-04-10T07:07:00.036Z,0.72
2024-04-10T07:08:00.100Z,0.70
2024-04-10T07:09:00.119Z,0.71
2024-04-10T07:10:00.240Z,0.69
2024-04-10T07:11:00.354Z,0.68
2024-04-10T07:12:00.425Z,0.67
2024-04-10T07:13:00.319Z,0.67
2024-04-10T07:14:00.409Z,0.66
2024-04-10T07:15:01.110Z,0.66
2024-04-10T07:16:00.588Z,0.65
2024-04-10T07:17:00.539Z,0.65
2024-04-10T07:18:00.571Z,0.66
2024-04-10T07:19:00.866Z,0.67
2024-04-10T07:20:01.119Z,0.70
2024-04-10T07:21:00.563Z,0.74
2024-04-10T07:22:01.463Z,0.73
2024-04-10T07:23:00.593Z,0.76
2024-04-10T07:24:01.481Z,0.83
2024-04-10T07:25:00.558Z,0.88
2024-04-10T07:26:01.202Z,0.93
2024-04-10T07:27:00.563Z,0.96
2024-04-10T07:28:00.547Z,0.99
2024-04-10T07:29:00.880Z,1.03
2024-04-10T07:30:00.526Z,1.07
2024-04-10T07:31:00.539Z,1.13
2024-04-10T07:32:00.623Z,1.19
2024-04-10T07:33:00.837Z,1.23
2024-04-10T07:34:01.116Z,1.24
2024-04-10T07:35:01.660Z,1.33
2024-04-10T07:36:00.678Z,1.40
2024-04-10T07:37:00.721Z,1.45
2024-04-10T07:38:00.826Z,1.50
2024-04-10T07:39:00.818Z,1.50
2024-04-10T07:40:02.288Z,1.53
2024-04-10T07:41:00.989Z,1.54
2024-04-10T07:42:00.963Z,1.55
2024-04-10T07:43:01.006Z,1.55
2024-04-10T07:44:01.092Z,1.53
2024-04-10T07:45:01.113Z,1.51
2024-04-10T07:46:01.151Z,1.45
2024-04-10T07:47:01.328Z,1.37
2024-04-10T07:48:01.298Z,1.28
2024-04-10T07:49:01.451Z,1.14
2024-04-10T07:50:01.188Z,1.05
2024-04-10T07:51:01.294Z,0.94
2024-04-10T07:52:01.285Z,0.86
2024-04-10T07:53:01.316Z,0.77
2024-04-10T07:54:01.335Z,0.69
2024-04-10T07:55:02.051Z,0.64
2024-04-10T07:56:01.396Z,0.58
2024-04-10T07:57:01.356Z,0.53
2024-04-10T07:58:01.427Z,0.50
2024-04-10T07:59:01.425Z,0.50
2024-04-10T08:00:01.423Z,0.51
2024-04-10T08:01:01.480Z,0.50
2024-04-10T08:02:01.553Z,0.50
2024-04-10T08:03:01.591Z,0.49
2024-04-10T08:04:01.706Z,0.51
2024-04-10T08:05:01.680Z,0.50
2024-04-10T08:06:01.672Z,0.50
2024-04-10T08:07:01.644Z,0.50
2024-04-10T08:08:01.687Z,0.51
2024-04-10T08:09:01.695Z,0.51
2024-04-10T08:10:01.803Z,0.51
2024-04-10T08:11:01.844Z,0.52
2024-04-10T08:12:02.749Z,0.51
2024-04-10T08:13:01.802Z,0.51
2024-04-10T08:14:01.871Z,0.51
2024-04-10T08:15:01.877Z,0.51
2024-04-10T08:16:02.050Z,0.52
2024-04-10T08:17:02.042Z,0.52
2024-04-10T08:18:02.656Z,0.51
2024-04-10T08:19:02.037Z,0.51
2024-04-10T08:20:02.725Z,0.51
2024-04-10T08:21:02.108Z,0.51
2024-04-10T08:22:02.167Z,0.52
2024-04-10T08:23:02.246Z,0.52
2024-04-10T08:24:02.237Z,0.52
2024-04-10T08:25:02.263Z,0.51
2024-04-10T08:26:02.342Z,0.51
2024-04-10T08:27:04.163Z,0.51
2024-04-10T08:28:02.352Z,0.52
2024-04-10T08:29:02.448Z,0.51
2024-04-10T08:30:02.441Z,0.52
2024-04-10T08:31:02.516Z,0.51
2024-04-10T08:32:02.633Z,0.52
2024-04-10T08:33:02.877Z,0.51
2024-04-10T08:34:02.897Z,0.51
2024-04-10T08:35:02.886Z,0.51
2024-04-10T08:36:02.820Z,0.52
2024-04-10T08:37:02.917Z,0.52
2024-04-10T08:38:02.939Z,0.53
2024-04-10T08:39:02.938Z,0.55
2024-04-10T08:40:03.062Z,0.56
2024-04-10T08:41:03.006Z,0.58
2024-04-10T08:42:02.996Z,0.60
2024-04-10T08:43:03.702Z,0.63
2024-04-10T08:44:03.032Z,0.65
2024-04-10T08:45:03.045Z,0.68
2024-04-10T08:46:03.077Z,0.70
2024-04-10T08:47:03.201Z,0.77
2024-04-10T08:48:03.293Z,0.80
2024-04-10T08:49:03.419Z,0.83
2024-04-10T08:50:03.278Z,0.85
2024-04-10T08:51:04.255Z,0.85
2024-04-10T08:52:03.441Z,0.86
2024-04-10T08:53:03.219Z,0.89
2024-04-10T08:54:03.201Z,0.95
2024-04-10T08:55:03.214Z,1.05
2024-04-10T08:56:10.007Z,1.11
2024-04-10T08:57:04.133Z,1.11
2024-04-10T08:58:03.161Z,1.13
2024-04-10T08:59:03.089Z,1.17
2024-04-10T09:00:03.078Z,1.25
2024-04-10T09:01:03.134Z,1.41
2024-04-10T09:02:03.118Z,1.50
2024-04-10T09:03:03.048Z,1.55
2024-04-10T09:04:03.113Z,1.63
2024-04-10T09:05:03.095Z,1.68
2024-04-10T09:06:02.957Z,1.72
2024-04-10T09:07:03.220Z,1.82
2024-04-10T09:08:03.647Z,1.89
2024-04-10T09:09:02.864Z,2.00
2024-04-10T09:10:02.838Z,2.07
2024-04-10T09:11:02.978Z,2.16
2024-04-10T09:12:02.840Z,2.21
2024-04-10T09:13:03.380Z,2.31
2024-04-10T09:14:02.762Z,2.35
2024-04-10T09:15:02.706Z,2.45
2024-04-10T09:16:02.690Z,2.44
2024-04-10T09:17:02.794Z,2.66
2024-04-10T09:18:02.682Z,2.74
2024-04-10T09:19:02.700Z,2.81
2024-04-10T09:20:02.658Z,2.95
2024-04-10T09:21:02.644Z,2.98
2024-04-10T09:22:03.594Z,3.07
2024-04-10T09:23:02.653Z,3.12
2024-04-10T09:24:02.675Z,3.10
2024-04-10T09:25:03.614Z,3.21
2024-04-10T09:26:02.620Z,3.39
2024-04-10T09:27:02.707Z,3.41
2024-04-10T09:28:02.614Z,3.49
2024-04-10T09:29:02.577Z,3.55
2024-04-10T09:30:02.749Z,3.56
2024-04-10T09:31:02.553Z,3.70
2024-04-10T09:32:02.532Z,3.59
2024-04-10T09:33:02.675Z,3.66
2024-04-10T09:34:02.702Z,3.64
2024-04-10T09:35:02.504Z,3.69
2024-04-10T09:36:02.571Z,3.77
2024-04-10T09:37:02.475Z,3.80
2024-04-10T09:38:02.499Z,3.79
2024-04-10T09:39:02.596Z,3.80
2024-04-10T09:40:02.421Z,3.85
2024-04-10T09:41:02.444Z,3.85
2024-04-10T09:42:02.774Z,3.92
2024-04-10T09:43:02.378Z,3.91
2024-04-10T09:44:02.383Z,3.90
2024-04-10T09:45:02.508Z,3.91
2024-04-10T09:46:02.370Z,3.88
2024-04-10T09:47:02.732Z,3.96
2024-04-10T09:48:02.577Z,3.91
2024-04-10T09:49:02.420Z,3.99
2024-04-10T09:50:02.353Z,3.97
2024-04-10T09:51:02.350Z,4.03
2024-04-10T09:52:02.326Z,3.96
2024-04-10T09:53:02.323Z,3.98
2024-04-10T09:54:02.421Z,4.00
2024-04-10T09:55:02.304Z,3.96
2024-04-10T09:56:02.286Z,3.99
2024-04-10T09:57:02.309Z,3.94
2024-04-10T09:58:02.275Z,3.93
2024-04-10T09:59:02.273Z,4.01
2024-04-10T10:00:02.533Z,4.07
2024-04-10T10:01:02.311Z,3.93
2024-04-10T10:02:02.255Z,3.99
2024-04-10T10:03:02.295Z,3.93
2024-04-10T10:04:02.350Z,3.99
2024-04-10T10:05:02.319Z,4.00
2024-04-10T10:06:02.335Z,3.97
2024-04-10T10:07:02.239Z,3.69
2024-04-10T10:08:04.199Z,3.37
2024-04-10T10:09:02.348Z,2.94
2024-04-10T10:10:02.494Z,2.47
2024-04-10T10:11:02.460Z,2.15
2024-04-10T10:12:02.656Z,1.87
2024-04-10T10:13:02.382Z,1.62
2024-04-10T10:14:02.388Z,1.32
2024-04-10T10:15:02.666Z,1.17
2024-04-10T10:16:02.515Z,1.01
2024-04-10T10:17:02.440Z,0.88
2024-04-10T10:18:04.153Z,0.81
2024-04-10T10:19:02.697Z,0.78
2024-04-10T10:20:02.478Z,0.69
2024-04-10T10:21:02.576Z,0.69
2024-04-10T10:22:03.919Z,0.69
2024-04-10T10:23:02.475Z,0.70
2024-04-10T10:24:02.498Z,0.70
2024-04-10T10:25:02.558Z,0.72
2024-04-10T10:26:02.370Z,0.75
2024-04-10T10:27:02.420Z,0.79
2024-04-10T10:28:02.342Z,0.82
2024-04-10T10:29:04.727Z,0.86
2024-04-10T10:30:02.505Z,0.87
2024-04-10T10:31:02.282Z,0.88
2024-04-10T10:32:02.294Z,0.92
2024-04-10T10:33:02.380Z,1.00
2024-04-10T10:34:02.356Z,1.16
2024-04-10T10:35:02.166Z,1.27
2024-04-10T10:36:02.192Z,1.40
2024-04-10T10:37:02.128Z,1.50
2024-04-10T10:38:03.624Z,1.63
2024-04-10T10:39:02.101Z,1.63
2024-04-10T10:40:02.024Z,1.66
2024-04-10T10:41:02.035Z,1.77
2024-04-10T10:42:02.307Z,1.97
2024-04-10T10:43:01.954Z,2.33
2024-04-10T10:44:01.912Z,2.48
2024-04-10T10:45:01.991Z,2.66
2024-04-10T10:46:01.847Z,2.80
2024-04-10T10:47:01.873Z,3.12
2024-04-10T10:48:01.972Z,3.37
2024-04-10T10:49:01.846Z,3.59
2024-04-10T10:50:01.692Z,3.86
2024-04-10T10:51:01.749Z,4.06
2024-04-10T10:52:01.622Z,4.34
2024-04-10T10:53:01.589Z,4.55
2024-04-10T10:54:01.712Z,4.82
2024-04-10T10:55:01.536Z,5.06
2024-04-10T10:56:01.483Z,5.40
2024-04-10T10:57:01.477Z,5.73
2024-04-10T10:58:01.402Z,5.92
2024-04-10T10:59:01.358Z,6.40
2024-04-10T11:00:01.427Z,6.53
2024-04-10T11:01:01.323Z,6.57
2024-04-10T11:02:01.253Z,7.04
2024-04-10T11:03:05.349Z,6.98
2024-04-10T11:04:02.315Z,7.00
2024-04-10T11:05:01.170Z,7.09
2024-04-10T11:06:01.205Z,7.30
2024-04-10T11:07:01.072Z,7.64
2024-04-10T11:08:01.034Z,8.25
2024-04-10T11:09:01.112Z,8.61
2024-04-10T11:10:00.952Z,8.67
2024-04-10T11:11:00.951Z,8.85
2024-04-10T11:12:00.926Z,9.04
2024-04-10T11:13:00.882Z,9.21
2024-04-10T11:14:00.810Z,9.11
2024-04-10T11:15:01.011Z,9.39
2024-04-10T11:16:00.886Z,9.31
2024-04-10T11:17:01.096Z,9.47
2024-04-10T11:18:00.954Z,9.57
2024-04-10T11:19:00.906Z,9.63
2024-04-10T11:20:00.879Z,9.54
2024-04-10T11:21:00.973Z,9.95
2024-04-10T11:22:00.893Z,9.79
2024-04-10T11:23:00.882Z,9.83
2024-04-10T11:24:01.128Z,9.76
2024-04-10T11:25:00.851Z,9.82
2024-04-10T11:26:00.837Z,9.94
2024-04-10T11:27:01.054Z,10.03
2024-04-10T11:28:00.808Z,9.82
2024-04-10T11:29:00.795Z,9.87
2024-04-10T11:30:00.889Z,9.78
2024-04-10T11:31:00.776Z,9.91
2024-04-10T11:32:00.727Z,9.81
2024-04-10T11:33:00.908Z,9.69
2024-04-10T11:34:01.063Z,9.85
2024-04-10T11:35:00.687Z,9.74
2024-04-10T11:36:00.784Z,9.70
2024-04-10T11:37:00.692Z,9.76
2024-04-10T11:38:00.600Z,9.71
2024-04-10T11:39:00.763Z,9.75
2024-04-10T11:40:00.578Z,9.54
2024-04-10T11:41:03.403Z,9.70
2024-04-10T11:42:00.564Z,9.72
2024-04-10T11:43:00.494Z,9.65
2024-04-10T11:44:00.439Z,9.45
2024-04-10T11:45:00.681Z,9.61
2024-04-10T11:46:00.369Z,9.47
2024-04-10T11:47:00.375Z,9.28
2024-04-10T11:48:00.586Z,9.11
2024-04-10T11:49:00.451Z,9.18
2024-04-10T11:50:00.241Z,9.00
2024-04-10T11:51:00.329Z,9.28
2024-04-10T11:52:00.172Z,8.87
2024-04-10T11:53:00.129Z,8.81
2024-04-10T11:54:00.189Z,8.87
2024-04-10T11:55:00.091Z,8.82
2024-04-10T11:56:00.046Z,8.70
2024-04-10T11:57:00.111Z,8.65
2024-04-10T11:58:00.716Z,8.75
2024-04-10T11:59:00.005Z,8.47
2024-04-10T12:00:00.110Z,8.55
2024-04-10T12:00:59.995Z,8.57
2024-04-10T12:01:59.870Z,8.43
2024-04-10T12:02:59.955Z,8.18
2024-04-10T12:03:59.945Z,7.98
2024-04-10T12:04:59.824Z,8.01
2024-04-10T12:05:59.809Z,7.62
2024-04-10T12:06:59.748Z,7.54
2024-04-10T12:07:59.705Z,7.34
2024-04-10T12:08:59.948Z,7.31
2024-04-10T12:09:59.617Z,7.03
2024-04-10T12:10:59.595Z,6.97
2024-04-10T12:11:59.643Z,6.75
2024-04-10T12:12:59.545Z,6.63
2024-04-10T12:13:59.488Z,6.60
2024-04-10T12:14:59.512Z,6.47
2024-04-10T12:15:59.420Z,6.46
2024-04-10T12:16:59.441Z,6.27
2024-04-10T12:17:59.388Z,6.18
2024-04-10T12:18:59.389Z,6.11
2024-04-10T12:19:59.308Z,6.12
2024-04-10T12:20:59.309Z,5.99
2024-04-10T12:21:59.239Z,5.91
2024-04-10T12:22:59.207Z,5.95
2024-04-10T12:23:59.198Z,5.82
2024-04-10T12:24:59.157Z,5.99
2024-04-10T12:25:59.113Z,5.81
2024-04-10T12:26:59.160Z,5.64
2024-04-10T12:27:59.037Z,5.75
2024-04-10T12:28:59.004Z,5.79
2024-04-10T12:29:59.083Z,5.67
2024-04-10T12:30:58.928Z,5.68
2024-04-10T12:31:58.908Z,5.70
2024-04-10T12:32:59.040Z,5.62
2024-04-10T12:33:59.036Z,5.66
2024-04-10T12:34:58.836Z,5.61
2024-04-10T12:35:58.988Z,5.53
2024-04-10T12:36:58.741Z,5.53
2024-04-10T12:37:58.703Z,5.46
2024-04-10T12:38:58.715Z,5.44
2024-04-10T12:39:58.639Z,5.41
2024-04-10T12:40:59.256Z,5.38
2024-04-10T12:41:58.717Z,5.45
2024-04-10T12:42:58.551Z,5.36
2024-04-10T12:43:58.520Z,5.24
2024-04-10T12:44:58.540Z,5.23
2024-04-10T12:45:58.499Z,5.28
2024-04-10T12:46:58.426Z,5.20
2024-04-10T12:47:58.549Z,5.22
2024-04-10T12:48:58.417Z,5.08
2024-04-10T12:49:58.332Z,4.99
2024-04-10T12:50:58.375Z,5.07
2024-04-10T12:51:58.276Z,5.06
2024-04-10T12:52:58.229Z,4.99
2024-04-10T12:53:58.480Z,4.97
2024-04-10T12:54:58.172Z,5.01
2024-04-10T12:55:58.152Z,5.01
2024-04-10T12:56:58.315Z,4.90
2024-04-10T12:57:58.091Z,4.89
2024-04-10T12:58:58.048Z,4.86
2024-04-10T12:59:58.211Z,4.89
2024-04-10T13:00:58.661Z,4.79
2024-04-10T13:01:57.948Z,4.75
2024-04-10T13:02:58.016Z,4.72
2024-04-10T13:03:58.148Z,4.58
2024-04-10T13:04:57.925Z,4.65
2024-04-10T13:05:58.017Z,4.59
2024-04-10T13:06:57.841Z,4.63
2024-04-10T13:07:57.807Z,4.54
2024-04-10T13:08:57.878Z,4.51
2024-04-10T13:09:57.798Z,4.58
2024-04-10T13:10:57.801Z,4.50
2024-04-10T13:11:57.956Z,4.45
2024-04-10T13:12:57.775Z,4.42
2024-04-10T13:13:57.791Z,4.41
2024-04-10T13:14:57.916Z,4.37
2024-04-10T13:15:57.772Z,4.33
2024-04-10T13:16:57.779Z,4.38
2024-04-10T13:17:57.814Z,4.37
2024-04-10T13:18:57.888Z,4.31